createdAt,value
2022-11-24T00:00:34.334Z,91.42
2022-11-24T00:03:37.074Z,90.97
2022-11-24T00:06:39.780Z,90.97
2022-11-24T00:09:42.965Z,91.45
2022-11-24T00:12:45.352Z,91.67
2022-11-24T00:15:48.373Z,91.68
2022-11-24T00:18:53.245Z,91.91
2022-11-24T00:21:56.071Z,91.65
2022-11-24T00:24:58.727Z,91.71
2022-11-24T00:28:01.552Z,91.73
2022-11-24T00:31:05.920Z,91.46
2022-11-24T00:34:13.929Z,91.44
2022-11-24T00:37:16.702Z,91.36
2022-11-24T00:40:19.483Z,91.00
2022-11-24T00:43:22.218Z,91.05
2022-11-24T00:46:25.027Z,91.37
2022-11-24T00:49:27.721Z,91.35
2022-11-24T00:52:30.742Z,90.47
2022-11-24T00:55:33.550Z,90.63
2022-11-24T00:58:37.848Z,90.77
2022-11-24T01:01:42.011Z,90.93
2022-11-24T01:04:44.813Z,90.67
2022-11-24T01:07:47.546Z,90.61
2022-11-24T01:10:50.719Z,91.09
2022-11-24T01:13:58.745Z,91.05
2022-11-24T01:17:01.456Z,91.03
2022-11-24T01:20:04.759Z,90.57
2022-11-24T01:23:08.184Z,90.76
2022-11-24T01:26:13.870Z,90.65
2022-11-24T01:29:17.119Z,89.87
2022-11-24T01:32:19.730Z,89.86
2022-11-24T01:35:22.259Z,89.92
2022-11-24T01:38:25.638Z,90.37
2022-11-24T01:41:28.482Z,90.08
2022-11-24T01:44:31.931Z,90.29
2022-11-24T01:47:40.930Z,90.76
2022-11-24T01:50:44.138Z,90.66
2022-11-24T01:53:54.304Z,90.17
2022-11-24T01:57:02.422Z,89.93
2022-11-24T02:00:08.667Z,89.76
2022-11-24T02:03:26.369Z,89.69
2022-11-24T02:06:31.702Z,89.70
2022-11-24T02:09:49.047Z,89.74
2022-11-24T02:12:55.209Z,90.47
2022-11-24T02:15:57.832Z,90.26
2022-11-24T02:19:00.777Z,89.95
2022-11-24T02:22:04.458Z,89.59
2022-11-24T02:25:34.137Z,90.21
2022-11-24T02:28:37.673Z,89.83
2022-11-24T02:31:55.554Z,90.08
2022-11-24T02:35:06.870Z,90.55
2022-11-24T02:38:15.963Z,90.40
2022-11-24T02:41:21.557Z,90.37
2022-11-24T02:44:29.541Z,90.59
2022-11-24T02:47:32.143Z,90.26
2022-11-24T02:50:34.915Z,90.14
2022-11-24T02:53:37.508Z,90.78
2022-11-24T02:56:40.145Z,90.68
2022-11-24T02:59:42.690Z,89.68
2022-11-24T03:02:45.428Z,89.99
2022-11-24T03:05:48.521Z,90.20
2022-11-24T03:08:51.302Z,90.40
2022-11-24T03:11:54.522Z,90.13
2022-11-24T03:14:57.530Z,90.24
2022-11-24T03:17:59.970Z,90.95
2022-11-24T03:21:03.583Z,91.02
2022-11-24T03:24:05.995Z,91.28
2022-11-24T03:27:08.975Z,91.48
2022-11-24T03:30:11.991Z,91.60
2022-11-24T03:33:14.660Z,91.47
2022-11-24T03:36:17.304Z,91.27
2022-11-24T03:39:20.053Z,91.35
2022-11-24T03:42:22.948Z,91.95
2022-11-24T03:48:48.558Z,91.71
2022-11-24T03:51:51.529Z,91.50
2022-11-24T03:54:53.929Z,91.60
2022-11-24T03:57:57.665Z,91.71
2022-11-24T04:01:00.635Z,91.50
2022-11-24T04:04:03.483Z,91.86
2022-11-24T04:07:05.964Z,91.92
2022-11-24T04:10:08.891Z,91.52
2022-11-24T04:13:14.330Z,91.50
2022-11-24T04:16:17.206Z,91.61
2022-11-24T04:19:19.637Z,91.27
2022-11-24T04:22:22.334Z,91.29
2022-11-24T04:25:24.774Z,91.51
2022-11-24T04:28:27.416Z,91.82
2022-11-24T04:31:30.398Z,92.04
2022-11-24T04:34:33.535Z,92.22
2022-11-24T04:37:36.428Z,92.33
2022-11-24T04:40:39.319Z,92.42
2022-11-24T04:43:41.786Z,92.24
2022-11-24T04:46:44.780Z,91.96
2022-11-24T04:49:49.026Z,91.88
2022-11-24T04:52:52.786Z,91.94
2022-11-24T04:55:55.163Z,92.40
2022-11-24T04:58:58.016Z,92.04
2022-11-24T05:02:00.518Z,92.02
2022-11-24T05:05:03.801Z,91.94
2022-11-24T05:08:06.387Z,91.63
2022-11-24T05:11:08.953Z,91.49
2022-11-24T05:14:11.786Z,91.59
2022-11-24T05:17:15.157Z,91.65
2022-11-24T05:20:18.280Z,91.64
2022-11-24T05:23:20.937Z,91.47
2022-11-24T05:26:23.409Z,91.53
2022-11-24T05:29:26.280Z,92.05
2022-11-24T05:32:28.954Z,91.86
2022-11-24T05:35:32.268Z,92.03
2022-11-24T05:38:35.823Z,92.01
2022-11-24T05:41:38.942Z,92.03
2022-11-24T05:44:41.542Z,91.93
2022-11-24T05:47:44.542Z,92.38
2022-11-24T05:50:53.687Z,92.39
2022-11-24T05:53:56.678Z,92.30
2022-11-24T05:56:59.148Z,92.03
2022-11-24T06:00:02.370Z,92.42
2022-11-24T06:03:15.132Z,92.24
2022-11-24T06:06:17.808Z,91.94
2022-11-24T06:09:20.535Z,92.06
2022-11-24T06:12:23.178Z,91.74
2022-11-24T06:15:25.951Z,92.11
2022-11-24T06:18:28.669Z,92.18
2022-11-24T06:21:31.834Z,92.27
2022-11-24T06:24:34.642Z,91.88
2022-11-24T06:27:37.340Z,92.11
2022-11-24T06:30:39.899Z,92.40
2022-11-24T06:33:42.521Z,93.12
2022-11-24T06:36:45.103Z,92.99
2022-11-24T06:39:48.504Z,93.74
2022-11-24T06:42:52.304Z,93.53
2022-11-24T06:45:55.068Z,93.82
2022-11-24T06:48:59.756Z,93.19
2022-11-24T06:52:02.443Z,93.23
2022-11-24T06:55:05.403Z,93.75
2022-11-24T06:58:08.110Z,93.08
2022-11-24T07:01:15.983Z,92.87
2022-11-24T07:04:19.656Z,92.84
2022-11-24T07:07:22.326Z,92.59
2022-11-24T07:10:24.970Z,92.52
2022-11-24T07:13:27.728Z,92.59
2022-11-24T07:16:31.910Z,92.76
2022-11-24T07:19:34.663Z,93.57
2022-11-24T07:22:37.271Z,93.61
2022-11-24T07:25:39.972Z,93.19
2022-11-24T07:28:43.923Z,92.97
2022-11-24T07:31:46.586Z,93.06
2022-11-24T07:34:49.145Z,92.51
2022-11-24T07:37:55.349Z,92.03
2022-11-24T07:41:09.840Z,92.69
2022-11-24T07:44:12.375Z,92.42
2022-11-24T07:47:15.013Z,92.81
2022-11-24T07:50:17.899Z,92.45
2022-11-24T07:53:20.728Z,92.30
2022-11-24T07:56:23.402Z,91.35
2022-11-24T07:59:26.400Z,91.09
2022-11-24T08:02:28.914Z,91.34
2022-11-24T08:05:31.671Z,91.35
2022-11-24T08:08:34.183Z,91.21
2022-11-24T08:11:37.006Z,90.31
2022-11-24T08:14:39.511Z,90.62
2022-11-24T08:17:42.482Z,91.06
2022-11-24T08:20:45.201Z,90.81
2022-11-24T08:23:47.950Z,91.45
2022-11-24T08:26:50.400Z,91.49
2022-11-24T08:29:53.440Z,91.39
2022-11-24T08:32:58.575Z,91.03
2022-11-24T08:36:06.532Z,91.11
2022-11-24T08:39:12.008Z,91.11
2022-11-24T08:42:14.785Z,90.74
2022-11-24T08:45:24.738Z,91.42
2022-11-24T08:48:28.818Z,90.90
2022-11-24T08:51:31.506Z,90.75
2022-11-24T08:54:35.044Z,90.91
2022-11-24T08:57:38.110Z,90.74
2022-11-24T09:00:40.747Z,90.26
2022-11-24T09:03:50.390Z,91.05
2022-11-24T09:06:53.748Z,90.38
2022-11-24T09:09:56.604Z,90.64
2022-11-24T09:12:59.395Z,90.01
2022-11-24T09:16:08.449Z,90.79
2022-11-24T09:19:11.318Z,89.60
2022-11-24T09:22:14.184Z,90.35
2022-11-24T09:25:17.445Z,89.82
2022-11-24T09:28:19.899Z,90.62
2022-11-24T09:31:25.671Z,89.96
2022-11-24T09:34:28.508Z,89.78
2022-11-24T09:37:33.033Z,90.39
2022-11-24T09:40:35.727Z,90.88
2022-11-24T09:43:46.064Z,90.71
2022-11-24T09:47:01.518Z,90.77
2022-11-24T09:50:18.922Z,90.95
2022-11-24T09:53:21.322Z,90.97
2022-11-24T09:56:27.923Z,90.69
2022-11-24T09:59:31.084Z,89.49
2022-11-24T10:02:35.039Z,90.41
2022-11-24T10:05:42.655Z,90.50
2022-11-24T10:09:17.374Z,90.39
2022-11-24T10:12:37.596Z,90.59
2022-11-24T10:16:00.354Z,90.84
2022-11-24T10:19:22.840Z,91.47
2022-11-24T10:22:48.302Z,90.36
2022-11-24T10:25:57.904Z,89.73
2022-11-24T10:29:09.694Z,90.56
2022-11-24T10:32:30.719Z,90.63
2022-11-24T10:35:46.457Z,91.12
2022-11-24T10:39:32.146Z,90.47
2022-11-24T10:42:37.618Z,89.95
2022-11-24T10:45:41.763Z,89.70
2022-11-24T10:48:57.005Z,90.36
2022-11-24T10:52:15.701Z,90.31
2022-11-24T10:55:21.591Z,89.56
2022-11-24T10:58:37.733Z,90.38
2022-11-24T11:01:42.111Z,90.16
2022-11-24T11:04:46.514Z,89.72
2022-11-24T11:07:51.083Z,89.73
2022-11-24T11:11:46.035Z,90.16
2022-11-24T11:14:51.646Z,90.30
2022-11-24T11:18:02.691Z,89.75
2022-11-24T11:21:07.277Z,90.44
2022-11-24T11:24:19.202Z,90.47
2022-11-24T11:27:26.044Z,90.16
2022-11-24T11:34:04.693Z,89.93
2022-11-24T11:37:13.539Z,90.39
2022-11-24T11:40:27.203Z,89.24
2022-11-24T11:43:36.016Z,88.61
2022-11-24T11:46:39.053Z,88.96
2022-11-24T11:49:42.488Z,89.24
2022-11-24T11:53:17.384Z,88.73
2022-11-24T11:56:40.537Z,89.38
2022-11-24T12:00:12.658Z,88.12
2022-11-24T12:03:33.641Z,88.36
2022-11-24T12:06:58.100Z,88.27
2022-11-24T12:10:18.203Z,88.64
2022-11-24T12:13:44.124Z,89.12
2022-11-24T12:17:07.975Z,89.26
2022-11-24T12:20:21.639Z,88.75
2022-11-24T12:23:45.640Z,88.71
2022-11-24T12:26:55.127Z,88.29
2022-11-24T12:30:03.825Z,88.14
2022-11-24T12:33:12.306Z,88.55
2022-11-24T12:36:35.004Z,88.72
2022-11-24T12:39:49.514Z,88.94
2022-11-24T12:43:09.749Z,88.53
2022-11-24T12:46:37.598Z,89.75
2022-11-24T12:50:05.081Z,89.97
2022-11-24T12:53:23.293Z,90.55
2022-11-24T12:56:55.964Z,90.22
2022-11-24T13:00:09.433Z,90.29
2022-11-24T13:03:24.307Z,90.48
2022-11-24T13:06:45.865Z,90.92
2022-11-24T13:10:46.904Z,90.25
2022-11-24T13:14:06.843Z,90.41
2022-11-24T13:17:43.233Z,90.62
2022-11-24T13:20:55.011Z,91.25
2022-11-24T13:24:03.046Z,90.43
2022-11-24T13:27:15.519Z,90.50
2022-11-24T13:30:33.416Z,90.93
2022-11-24T13:33:37.022Z,90.69
2022-11-24T13:36:53.081Z,90.85
2022-11-24T13:39:57.092Z,87.55
2022-11-24T13:43:02.140Z,86.41
2022-11-24T13:46:05.082Z,86.35
2022-11-24T13:49:14.285Z,85.72
2022-11-24T13:52:51.441Z,86.33
2022-11-24T13:56:00.221Z,87.38
2022-11-24T13:59:17.313Z,87.37
2022-11-24T14:02:23.554Z,87.75
2022-11-24T14:05:52.859Z,87.20
2022-11-24T14:08:56.114Z,87.63
2022-11-24T14:12:19.239Z,88.82
2022-11-24T14:15:29.489Z,87.66
2022-11-24T14:18:37.439Z,87.60
2022-11-24T14:21:41.638Z,88.00
2022-11-24T14:24:47.285Z,88.25
2022-11-24T14:27:50.777Z,88.08
2022-11-24T14:31:23.276Z,88.94
2022-11-24T14:34:28.828Z,90.00
2022-11-24T14:37:31.639Z,90.38
2022-11-24T14:40:43.329Z,90.97
2022-11-24T14:43:46.125Z,91.30
2022-11-24T14:46:48.858Z,91.10
2022-11-24T14:49:52.878Z,90.88
2022-11-24T14:52:57.935Z,90.53
2022-11-24T14:56:23.740Z,91.09
2022-11-24T14:59:29.346Z,91.34
2022-11-24T15:02:52.113Z,91.77
2022-11-24T15:06:00.525Z,92.00
2022-11-24T15:09:03.396Z,92.16
2022-11-24T15:12:10.093Z,91.45
2022-11-24T15:15:22.734Z,91.83
2022-11-24T15:18:36.595Z,91.79
2022-11-24T15:21:39.775Z,91.83
2022-11-24T15:24:54.234Z,91.45
2022-11-24T15:27:57.185Z,91.51
2022-11-24T15:31:01.720Z,91.90
2022-11-24T15:34:04.761Z,91.60
2022-11-24T15:37:10.251Z,91.80
2022-11-24T15:40:13.757Z,92.42
2022-11-24T15:43:31.535Z,92.36
2022-11-24T15:46:38.305Z,91.72
2022-11-24T15:49:40.875Z,91.30
2022-11-24T15:52:44.534Z,91.56
2022-11-24T15:55:47.848Z,91.49
2022-11-24T15:58:50.655Z,91.72
2022-11-24T16:01:53.218Z,91.80
2022-11-24T16:04:59.428Z,91.77
2022-11-24T16:08:02.054Z,91.43
2022-11-24T16:11:04.799Z,91.21
2022-11-24T16:14:07.281Z,91.60
2022-11-24T16:17:10.122Z,91.29
2022-11-24T16:20:13.012Z,91.38
2022-11-24T16:23:15.744Z,91.63
2022-11-24T16:26:18.442Z,91.91
2022-11-24T16:29:23.743Z,91.80
2022-11-24T16:32:26.515Z,91.77
2022-11-24T16:35:29.415Z,92.08
2022-11-24T16:38:32.260Z,91.82
2022-11-24T16:41:35.030Z,92.34
2022-11-24T16:44:37.588Z,91.75
2022-11-24T16:47:41.935Z,92.31
2022-11-24T16:50:44.694Z,91.19
2022-11-24T16:53:47.921Z,91.65
2022-11-24T16:56:50.434Z,91.46
2022-11-24T16:59:53.727Z,91.54
2022-11-24T17:02:56.553Z,91.72
2022-11-24T17:06:00.832Z,92.15
2022-11-24T17:09:03.778Z,92.34
2022-11-24T17:12:06.615Z,92.39
2022-11-24T17:15:31.706Z,92.56
2022-11-24T17:18:32.621Z,92.51
2022-11-24T17:21:35.334Z,92.75
2022-11-24T17:24:38.427Z,92.57
2022-11-24T17:27:41.715Z,93.24
2022-11-24T17:30:44.551Z,93.67
2022-11-24T17:33:48.138Z,93.97
2022-11-24T17:36:51.339Z,93.35
2022-11-24T17:40:12.945Z,93.89
2022-11-24T17:43:16.935Z,94.04
2022-11-24T17:46:20.128Z,93.50
2022-11-24T17:49:23.638Z,93.45
2022-11-24T17:52:26.432Z,93.36
2022-11-24T17:55:29.220Z,93.16
2022-11-24T17:58:37.184Z,93.03
2022-11-24T18:01:42.586Z,92.97
2022-11-24T18:04:45.751Z,93.11
2022-11-24T18:07:48.607Z,92.76
2022-11-24T18:10:51.596Z,92.46
2022-11-24T18:14:00.171Z,92.47
2022-11-24T18:17:03.450Z,92.03
2022-11-24T18:20:10.834Z,91.77
2022-11-24T18:23:15.131Z,92.45
2022-11-24T18:26:17.990Z,92.39
2022-11-24T18:29:22.831Z,92.75
2022-11-24T18:32:26.110Z,93.14
2022-11-24T18:35:29.317Z,93.14
2022-11-24T18:38:34.944Z,93.13
2022-11-24T18:41:39.660Z,93.09
2022-11-24T18:44:42.889Z,92.64
2022-11-24T18:47:45.578Z,92.50
2022-11-24T18:50:52.992Z,92.46
2022-11-24T18:53:58.238Z,92.47
2022-11-24T18:57:03.576Z,92.47
2022-11-24T19:00:07.648Z,92.11
2022-11-24T19:03:10.589Z,92.23
2022-11-24T19:06:29.045Z,91.91
2022-11-24T19:09:33.024Z,91.86
2022-11-24T19:12:36.044Z,92.05
2022-11-24T19:15:39.170Z,91.75
2022-11-24T19:18:41.967Z,92.06
2022-11-24T19:21:45.345Z,92.38
2022-11-24T19:24:50.077Z,92.50
2022-11-24T19:27:53.123Z,92.98
2022-11-24T19:31:08.366Z,92.91
2022-11-24T19:34:11.322Z,92.69
2022-11-24T19:37:14.846Z,92.54
2022-11-24T19:40:18.787Z,91.95
2022-11-24T19:43:21.560Z,92.03
2022-11-24T19:46:27.578Z,92.13
2022-11-24T19:49:30.588Z,92.92
2022-11-24T19:52:33.615Z,92.92
2022-11-24T19:55:36.400Z,92.85
2022-11-24T19:58:40.456Z,92.54
2022-11-24T20:01:43.783Z,92.91
2022-11-24T20:04:46.899Z,92.71
2022-11-24T20:07:49.866Z,92.08
2022-11-24T20:10:53.043Z,92.44
2022-11-24T20:13:56.697Z,92.36
2022-11-24T20:17:00.378Z,92.09
2022-11-24T20:20:03.286Z,91.79
2022-11-24T20:23:06.454Z,91.74
2022-11-24T20:26:15.551Z,91.66
2022-11-24T20:29:18.712Z,91.60
2022-11-24T20:32:21.790Z,91.21
2022-11-24T20:35:24.627Z,91.17
2022-11-24T20:38:29.306Z,91.05
2022-11-24T20:41:34.431Z,91.01
2022-11-24T20:44:37.749Z,91.41
2022-11-24T20:47:40.864Z,91.43
2022-11-24T20:50:48.307Z,91.68
2022-11-24T20:53:56.853Z,91.75
2022-11-24T20:56:59.720Z,91.94
2022-11-24T21:00:02.645Z,92.27
2022-11-24T21:03:07.145Z,92.10
2022-11-24T21:06:10.266Z,92.10
2022-11-24T21:09:13.122Z,92.18
2022-11-24T21:12:17.950Z,92.49
2022-11-24T21:15:21.283Z,92.32
2022-11-24T21:18:24.254Z,92.38
2022-11-24T21:21:33.958Z,92.70
2022-11-24T21:24:37.138Z,93.09
2022-11-24T21:27:40.167Z,93.03
2022-11-24T21:30:42.955Z,92.74
2022-11-24T21:33:50.503Z,93.20
2022-11-24T21:36:53.329Z,93.10
2022-11-24T21:39:56.026Z,93.61
2022-11-24T21:42:59.804Z,93.89
2022-11-24T21:46:04.695Z,93.65
2022-11-24T21:49:07.524Z,93.86
2022-11-24T21:52:09.932Z,94.33
2022-11-24T21:55:12.743Z,94.04
2022-11-24T21:58:15.546Z,94.21
2022-11-24T22:01:20.748Z,93.21
2022-11-24T22:04:23.558Z,93.22
2022-11-24T22:07:26.132Z,92.74
2022-11-24T22:10:29.822Z,92.69
2022-11-24T22:13:32.895Z,92.58
2022-11-24T22:16:35.452Z,93.12
2022-11-24T22:19:38.414Z,93.13
2022-11-24T22:22:40.891Z,93.61
2022-11-24T22:25:43.808Z,93.19
2022-11-24T22:28:47.340Z,93.16
2022-11-24T22:31:54.445Z,92.05
2022-11-24T22:34:57.307Z,92.42
2022-11-24T22:37:59.794Z,92.59
2022-11-24T22:41:08.226Z,92.75
2022-11-24T22:44:10.879Z,92.23
2022-11-24T22:47:13.412Z,91.94
2022-11-24T22:50:16.030Z,91.59
2022-11-24T22:53:18.531Z,92.14
2022-11-24T22:56:22.011Z,91.54
2022-11-24T22:59:24.751Z,92.09
2022-11-24T23:02:28.575Z,91.59
2022-11-24T23:05:33.205Z,91.67
2022-11-24T23:08:36.388Z,92.27
2022-11-24T23:11:40.507Z,92.22
2022-11-24T23:14:43.291Z,92.04
2022-11-24T23:17:45.722Z,92.25
2022-11-24T23:20:48.696Z,92.35
2022-11-24T23:23:52.168Z,92.48
2022-11-24T23:26:55.312Z,92.42
2022-11-24T23:29:58.178Z,92.85
2022-11-24T23:33:00.851Z,92.73
2022-11-24T23:36:07.062Z,93.15
2022-11-24T23:39:12.652Z,93.60
2022-11-24T23:42:15.486Z,93.74
2022-11-24T23:45:18.420Z,94.02
2022-11-24T23:48:20.877Z,94.33
2022-11-24T23:51:28.555Z,94.42
2022-11-24T23:54:31.072Z,94.58
2022-11-24T23:57:33.821Z,94.84
